<?xml version="1.0" encoding="UTF-8" standalone="no" ?>
<gpx xmlns="http://www.topografix.com/GPX/1/1" xmlns:xsi="http://www.w3.org/2001/XMLSchema-instance" xsi:schemaLocation="http://www.topografix.com/GPX/1/1 http://www.topografix.com/GPX/1/1/gpx.xsd" version="1.1" creator="VisuGPX - https://www.visugpx.com">
  <metadata>
    <name>Vercors Jours 6</name>
  </metadata>
  <wpt lat="44.69515" lon="5.48509">
    <ele>580</ele>
    <name><![CDATA[Place du Reviron - Mairie - Beffroi. Proche de la]]></name>
  </wpt>
  <wpt lat="44.69219" lon="5.4771">
    <ele>551</ele>
    <name><![CDATA[Début de chemin des vignes]]></name>
  </wpt>
  <wpt lat="44.69259" lon="5.46107">
    <ele>567</ele>
    <name><![CDATA[Chemin de Maupas]]></name>
  </wpt>
  <wpt lat="44.68966" lon="5.46189">
    <ele>549</ele>
    <name><![CDATA[Chemin de Plan Girodet]]></name>
  </wpt>
  <wpt lat="44.69154" lon="5.43465">
    <ele>539</ele>
    <name><![CDATA[Entrée Saint-Roman]]></name>
  </wpt>
  <wpt lat="44.69212" lon="5.43273">
    <ele>535</ele>
    <name><![CDATA[Route des Vignes de Saint-Roman]]></name>
  </wpt>
  <wpt lat="44.6923" lon="5.43276">
    <ele>535</ele>
    <name><![CDATA[Route des vignes de Saint Roman]]></name>
  </wpt>
  <wpt lat="44.70352" lon="5.43498">
    <ele>605</ele>
    <name><![CDATA[Col de Combemare]]></name>
  </wpt>
  <wpt lat="44.71265" lon="5.43064">
    <ele>559</ele>
    <name><![CDATA[Laval d'Aix]]></name>
  </wpt>
  <wpt lat="44.71498" lon="5.41351">
    <ele>490</ele>
    <name><![CDATA[Fourche]]></name>
  </wpt>
  <wpt lat="44.71955" lon="5.41086">
    <ele>484</ele>
    <name><![CDATA[Ruisseau boisé]]></name>
  </wpt>
  <wpt lat="44.72115" lon="5.40467">
    <ele>446</ele>
    <name><![CDATA[Chemin du haut de Charroux]]></name>
  </wpt>
  <wpt lat="44.72563" lon="5.40026">
    <ele>436</ele>
    <name><![CDATA[Arrivée Molières Glandaz]]></name>
  </wpt>
  <wpt lat="44.72694" lon="5.39553">
    <ele>427</ele>
    <name><![CDATA[Rue du Péage. Proche de la]]></name>
  </wpt>
  <wpt lat="44.73532" lon="5.40345">
    <ele>483</ele>
    <name><![CDATA[Sallières]]></name>
  </wpt>
  <wpt lat="44.74616" lon="5.38541">
    <ele>411</ele>
    <name><![CDATA[Lotissement des Acacias]]></name>
  </wpt>
  <wpt lat="44.74894" lon="5.37953">
    <ele>407</ele>
    <name><![CDATA[Avenue du Texas]]></name>
  </wpt>
  <wpt lat="44.75343" lon="5.37293">
    <ele>420</ele>
    <name><![CDATA[Porte Saint-Marcel]]></name>
  </wpt>
  <wpt lat="44.75532" lon="5.36911">
    <ele>417</ele>
    <name><![CDATA[Sortie vieille ville]]></name>
  </wpt>
  <wpt lat="44.75828" lon="5.36353">
    <ele>394</ele>
    <name><![CDATA[SNCF]]></name>
  </wpt>
  <trk>
    <name><![CDATA[Châtillon-en-Diois (le Beffroi) - Die (gare SNCF), à travers les vignes]]></name>
    <trkseg>
      <trkpt lat="44.69515" lon="5.48509">
        <ele>580</ele>
        <time>2018-09-24T07:07:08+02:00</time>
      </trkpt>
      <trkpt lat="44.69457" lon="5.48248">
        <ele>570</ele>
      </trkpt>
      <trkpt lat="44.69444" lon="5.48216">
        <ele>573</ele>
      </trkpt>
      <trkpt lat="44.69336" lon="5.48075">
        <ele>571</ele>
        <time>2018-09-24T07:07:49+02:00</time>
      </trkpt>
      <trkpt lat="44.69316" lon="5.48037">
        <ele>567</ele>
        <time>2018-09-24T07:08:09+02:00</time>
      </trkpt>
      <trkpt lat="44.69301" lon="5.4799">
        <ele>565</ele>
        <time>2018-09-24T07:08:36+02:00</time>
      </trkpt>
      <trkpt lat="44.69275" lon="5.47894">
        <ele>562</ele>
        <time>2018-09-24T07:09:31+02:00</time>
      </trkpt>
      <trkpt lat="44.69264" lon="5.47844">
        <ele>560</ele>
        <time>2018-09-24T07:09:59+02:00</time>
      </trkpt>
      <trkpt lat="44.69246" lon="5.47798">
        <ele>557</ele>
        <time>2018-09-24T07:10:30+02:00</time>
      </trkpt>
      <trkpt lat="44.69219" lon="5.4771">
        <ele>551</ele>
        <time>2018-09-24T07:11:44+02:00</time>
      </trkpt>
      <trkpt lat="44.69238" lon="5.47651">
        <ele>550</ele>
        <time>2018-09-24T07:12:09+02:00</time>
      </trkpt>
      <trkpt lat="44.6924" lon="5.47625">
        <ele>552</ele>
        <time>2018-09-24T07:12:23+02:00</time>
      </trkpt>
      <trkpt lat="44.69237" lon="5.47591">
        <ele>552</ele>
        <time>2018-09-24T07:12:36+02:00</time>
      </trkpt>
      <trkpt lat="44.69245" lon="5.47442">
        <ele>548</ele>
        <time>2018-09-24T07:14:02+02:00</time>
      </trkpt>
      <trkpt lat="44.69248" lon="5.47391">
        <ele>549</ele>
        <time>2018-09-24T07:14:29+02:00</time>
      </trkpt>
      <trkpt lat="44.69244" lon="5.47289">
        <ele>553</ele>
        <time>2018-09-24T07:15:26+02:00</time>
      </trkpt>
      <trkpt lat="44.69241" lon="5.47236">
        <ele>552</ele>
        <time>2018-09-24T07:15:58+02:00</time>
      </trkpt>
      <trkpt lat="44.69235" lon="5.47132">
        <ele>554</ele>
        <time>2018-09-24T07:16:58+02:00</time>
      </trkpt>
      <trkpt lat="44.69236" lon="5.47105">
        <ele>554</ele>
        <time>2018-09-24T07:17:13+02:00</time>
      </trkpt>
      <trkpt lat="44.69248" lon="5.47012">
        <ele>555</ele>
        <time>2018-09-24T07:17:27+02:00</time>
      </trkpt>
      <trkpt lat="44.69262" lon="5.46925">
        <ele>551</ele>
        <time>2018-09-24T07:21:17+02:00</time>
      </trkpt>
      <trkpt lat="44.69264" lon="5.46847">
        <ele>546</ele>
        <time>2018-09-24T07:22:00+02:00</time>
      </trkpt>
      <trkpt lat="44.69259" lon="5.46795">
        <ele>551</ele>
        <time>2018-09-24T07:22:35+02:00</time>
      </trkpt>
      <trkpt lat="44.69246" lon="5.46719">
        <ele>553</ele>
        <time>2018-09-24T07:23:20+02:00</time>
      </trkpt>
      <trkpt lat="44.69241" lon="5.46693">
        <ele>557</ele>
        <time>2018-09-24T07:23:35+02:00</time>
      </trkpt>
      <trkpt lat="44.69254" lon="5.46675">
        <ele>561</ele>
        <time>2018-09-24T07:23:53+02:00</time>
      </trkpt>
      <trkpt lat="44.69283" lon="5.46662">
        <ele>560</ele>
        <time>2018-09-24T07:24:49+02:00</time>
      </trkpt>
      <trkpt lat="44.69301" lon="5.46585">
        <ele>562</ele>
        <time>2018-09-24T07:25:04+02:00</time>
      </trkpt>
      <trkpt lat="44.693" lon="5.46551">
        <ele>563</ele>
        <time>2018-09-24T07:25:58+02:00</time>
      </trkpt>
      <trkpt lat="44.69306" lon="5.46512">
        <ele>567</ele>
        <time>2018-09-24T07:26:12+02:00</time>
      </trkpt>
      <trkpt lat="44.69307" lon="5.46448">
        <ele>565</ele>
        <time>2018-09-24T07:26:58+02:00</time>
      </trkpt>
      <trkpt lat="44.69305" lon="5.46395">
        <ele>569</ele>
        <time>2018-09-24T07:27:30+02:00</time>
      </trkpt>
      <trkpt lat="44.69295" lon="5.46315">
        <ele>567</ele>
        <time>2018-09-24T07:28:16+02:00</time>
      </trkpt>
      <trkpt lat="44.69285" lon="5.46266">
        <ele>567</ele>
        <time>2018-09-24T07:28:48+02:00</time>
      </trkpt>
      <trkpt lat="44.69284" lon="5.4624">
        <ele>566</ele>
        <time>2018-09-24T07:29:01+02:00</time>
      </trkpt>
      <trkpt lat="44.69287" lon="5.46188">
        <ele>565</ele>
        <time>2018-09-24T07:29:36+02:00</time>
      </trkpt>
      <trkpt lat="44.69281" lon="5.46161">
        <ele>565</ele>
        <time>2018-09-24T07:30:07+02:00</time>
      </trkpt>
      <trkpt lat="44.69271" lon="5.46133">
        <ele>568</ele>
      </trkpt>
      <trkpt lat="44.69259" lon="5.46107">
        <ele>567</ele>
      </trkpt>
      <trkpt lat="44.69236" lon="5.46098">
        <ele>564</ele>
        <time>2018-09-24T07:31:07+02:00</time>
      </trkpt>
      <trkpt lat="44.69206" lon="5.46108">
        <ele>567</ele>
        <time>2018-09-24T07:31:22+02:00</time>
      </trkpt>
      <trkpt lat="44.69098" lon="5.46146">
        <ele>559</ele>
        <time>2018-09-24T07:32:51+02:00</time>
      </trkpt>
      <trkpt lat="44.68966" lon="5.46189">
        <ele>549</ele>
        <time>2018-09-24T07:35:01+02:00</time>
      </trkpt>
      <trkpt lat="44.68966" lon="5.46158">
        <ele>547</ele>
        <time>2018-09-24T07:35:18+02:00</time>
      </trkpt>
      <trkpt lat="44.68947" lon="5.46004">
        <ele>554</ele>
        <time>2018-09-24T07:36:50+02:00</time>
      </trkpt>
      <trkpt lat="44.68924" lon="5.4569">
        <ele>556</ele>
        <time>2018-09-24T07:39:56+02:00</time>
      </trkpt>
      <trkpt lat="44.68928" lon="5.45638">
        <ele>559</ele>
        <time>2018-09-24T07:40:26+02:00</time>
      </trkpt>
      <trkpt lat="44.68933" lon="5.45588">
        <ele>559</ele>
        <time>2018-09-24T07:40:54+02:00</time>
      </trkpt>
      <trkpt lat="44.68942" lon="5.45483">
        <ele>560</ele>
        <time>2018-09-24T07:42:01+02:00</time>
      </trkpt>
      <trkpt lat="44.68964" lon="5.4541">
        <ele>563</ele>
        <time>2018-09-24T07:42:46+02:00</time>
      </trkpt>
      <trkpt lat="44.68969" lon="5.45385">
        <ele>563</ele>
        <time>2018-09-24T07:43:01+02:00</time>
      </trkpt>
      <trkpt lat="44.6898" lon="5.45336">
        <ele>558</ele>
        <time>2018-09-24T07:43:32+02:00</time>
      </trkpt>
      <trkpt lat="44.68983" lon="5.45309">
        <ele>557</ele>
        <time>2018-09-24T07:43:48+02:00</time>
      </trkpt>
      <trkpt lat="44.68992" lon="5.45233">
        <ele>557</ele>
        <time>2018-09-24T07:44:32+02:00</time>
      </trkpt>
      <trkpt lat="44.69005" lon="5.45149">
        <ele>555</ele>
        <time>2018-09-24T07:45:33+02:00</time>
      </trkpt>
      <trkpt lat="44.69026" lon="5.45115">
        <ele>558</ele>
        <time>2018-09-24T07:45:46+02:00</time>
      </trkpt>
      <trkpt lat="44.6902" lon="5.45091">
        <ele>558</ele>
        <time>2018-09-24T07:46:04+02:00</time>
      </trkpt>
      <trkpt lat="44.69005" lon="5.45076">
        <ele>558</ele>
        <time>2018-09-24T07:46:19+02:00</time>
      </trkpt>
      <trkpt lat="44.69007" lon="5.4505">
        <ele>553</ele>
        <time>2018-09-24T07:46:39+02:00</time>
      </trkpt>
      <trkpt lat="44.69024" lon="5.45004">
        <ele>549</ele>
        <time>2018-09-24T07:47:07+02:00</time>
      </trkpt>
      <trkpt lat="44.69042" lon="5.4496">
        <ele>549</ele>
        <time>2018-09-24T07:47:37+02:00</time>
      </trkpt>
      <trkpt lat="44.69053" lon="5.44912">
        <ele>553</ele>
        <time>2018-09-24T07:52:08+02:00</time>
      </trkpt>
      <trkpt lat="44.69065" lon="5.44866">
        <ele>552</ele>
        <time>2018-09-24T07:53:53+02:00</time>
      </trkpt>
      <trkpt lat="44.69071" lon="5.44815">
        <ele>554</ele>
        <time>2018-09-24T07:54:29+02:00</time>
      </trkpt>
      <trkpt lat="44.69091" lon="5.44741">
        <ele>559</ele>
        <time>2018-09-24T07:55:21+02:00</time>
      </trkpt>
      <trkpt lat="44.69127" lon="5.44682">
        <ele>563</ele>
        <time>2018-09-24T07:56:13+02:00</time>
      </trkpt>
      <trkpt lat="44.69134" lon="5.44658">
        <ele>564</ele>
        <time>2018-09-24T07:56:34+02:00</time>
      </trkpt>
      <trkpt lat="44.69144" lon="5.44635">
        <ele>565</ele>
        <time>2018-09-24T07:56:52+02:00</time>
      </trkpt>
      <trkpt lat="44.69155" lon="5.44615">
        <ele>568</ele>
        <time>2018-09-24T07:57:08+02:00</time>
      </trkpt>
      <trkpt lat="44.69162" lon="5.44543">
        <ele>579</ele>
        <time>2018-09-24T07:58:03+02:00</time>
      </trkpt>
      <trkpt lat="44.69187" lon="5.44531">
        <ele>579</ele>
        <time>2018-09-24T07:58:25+02:00</time>
      </trkpt>
      <trkpt lat="44.69223" lon="5.44519">
        <ele>584</ele>
        <time>2018-09-24T07:59:12+02:00</time>
      </trkpt>
      <trkpt lat="44.69258" lon="5.44504">
        <ele>590</ele>
        <time>2018-09-24T07:59:52+02:00</time>
      </trkpt>
      <trkpt lat="44.69271" lon="5.44486">
        <ele>592</ele>
        <time>2018-09-24T08:02:28+02:00</time>
      </trkpt>
      <trkpt lat="44.69277" lon="5.44461">
        <ele>593</ele>
        <time>2018-09-24T08:02:50+02:00</time>
      </trkpt>
      <trkpt lat="44.6927" lon="5.44438">
        <ele>593</ele>
        <time>2018-09-24T08:03:07+02:00</time>
      </trkpt>
      <trkpt lat="44.69267" lon="5.44413">
        <ele>592</ele>
        <time>2018-09-24T08:03:26+02:00</time>
      </trkpt>
      <trkpt lat="44.69263" lon="5.44387">
        <ele>590</ele>
        <time>2018-09-24T08:03:47+02:00</time>
      </trkpt>
      <trkpt lat="44.69258" lon="5.44363">
        <ele>573</ele>
        <time>2018-09-24T08:04:03+02:00</time>
      </trkpt>
      <trkpt lat="44.69252" lon="5.44335">
        <ele>569</ele>
        <time>2018-09-24T08:04:22+02:00</time>
      </trkpt>
      <trkpt lat="44.6924" lon="5.44304">
        <ele>567</ele>
        <time>2018-09-24T08:04:41+02:00</time>
      </trkpt>
      <trkpt lat="44.69213" lon="5.44289">
        <ele>577</ele>
        <time>2018-09-24T08:05:45+02:00</time>
      </trkpt>
      <trkpt lat="44.6918" lon="5.44265">
        <ele>573</ele>
        <time>2018-09-24T08:06:17+02:00</time>
      </trkpt>
      <trkpt lat="44.69148" lon="5.44226">
        <ele>563</ele>
        <time>2018-09-24T08:06:50+02:00</time>
      </trkpt>
      <trkpt lat="44.69164" lon="5.44207">
        <ele>565</ele>
        <time>2018-09-24T08:07:25+02:00</time>
      </trkpt>
      <trkpt lat="44.69178" lon="5.4419">
        <ele>561</ele>
        <time>2018-09-24T08:07:42+02:00</time>
      </trkpt>
      <trkpt lat="44.69179" lon="5.44116">
        <ele>555</ele>
        <time>2018-09-24T08:08:12+02:00</time>
      </trkpt>
      <trkpt lat="44.6916" lon="5.44097">
        <ele>553</ele>
        <time>2018-09-24T08:08:48+02:00</time>
      </trkpt>
      <trkpt lat="44.69137" lon="5.44055">
        <ele>550</ele>
        <time>2018-09-24T08:09:14+02:00</time>
      </trkpt>
      <trkpt lat="44.69142" lon="5.4403">
        <ele>550</ele>
        <time>2018-09-24T08:09:28+02:00</time>
      </trkpt>
      <trkpt lat="44.69163" lon="5.4396">
        <ele>550</ele>
        <time>2018-09-24T08:10:14+02:00</time>
      </trkpt>
      <trkpt lat="44.69149" lon="5.43912">
        <ele>544</ele>
        <time>2018-09-24T08:10:43+02:00</time>
      </trkpt>
      <trkpt lat="44.69148" lon="5.43887">
        <ele>541</ele>
        <time>2018-09-24T08:10:58+02:00</time>
      </trkpt>
      <trkpt lat="44.69152" lon="5.43783">
        <ele>544</ele>
        <time>2018-09-24T08:11:58+02:00</time>
      </trkpt>
      <trkpt lat="44.6914" lon="5.43734">
        <ele>546</ele>
        <time>2018-09-24T08:12:24+02:00</time>
      </trkpt>
      <trkpt lat="44.69155" lon="5.4371">
        <ele>546</ele>
        <time>2018-09-24T08:12:41+02:00</time>
      </trkpt>
      <trkpt lat="44.69159" lon="5.43683">
        <ele>543</ele>
        <time>2018-09-24T08:12:56+02:00</time>
      </trkpt>
      <trkpt lat="44.6915" lon="5.43635">
        <ele>544</ele>
        <time>2018-09-24T08:13:13+02:00</time>
      </trkpt>
      <trkpt lat="44.69136" lon="5.43618">
        <ele>539</ele>
        <time>2018-09-24T08:13:43+02:00</time>
      </trkpt>
      <trkpt lat="44.69115" lon="5.43597">
        <ele>546</ele>
        <time>2018-09-24T08:14:02+02:00</time>
      </trkpt>
      <trkpt lat="44.6911" lon="5.43573">
        <ele>546</ele>
        <time>2018-09-24T08:14:17+02:00</time>
      </trkpt>
      <trkpt lat="44.69154" lon="5.43465">
        <ele>539</ele>
        <time>2018-09-24T08:17:11+02:00</time>
      </trkpt>
      <trkpt lat="44.69153" lon="5.43432">
        <ele>544</ele>
        <time>2018-09-24T08:17:48+02:00</time>
      </trkpt>
      <trkpt lat="44.69147" lon="5.43407">
        <ele>544</ele>
        <time>2018-09-24T08:18:02+02:00</time>
      </trkpt>
      <trkpt lat="44.69135" lon="5.43386">
        <ele>543</ele>
        <time>2018-09-24T08:18:20+02:00</time>
      </trkpt>
      <trkpt lat="44.69143" lon="5.43362">
        <ele>542</ele>
        <time>2018-09-24T08:18:36+02:00</time>
      </trkpt>
      <trkpt lat="44.69159" lon="5.43351">
        <ele>541</ele>
        <time>2018-09-24T08:18:56+02:00</time>
      </trkpt>
      <trkpt lat="44.69177" lon="5.43342">
        <ele>541</ele>
        <time>2018-09-24T08:20:09+02:00</time>
      </trkpt>
      <trkpt lat="44.69176" lon="5.43315">
        <ele>540</ele>
        <time>2018-09-24T08:20:14+02:00</time>
      </trkpt>
      <trkpt lat="44.6918" lon="5.4329">
        <ele>538</ele>
        <time>2018-09-24T08:21:59+02:00</time>
      </trkpt>
      <trkpt lat="44.69191" lon="5.43263">
        <ele>531</ele>
        <time>2018-09-24T08:22:14+02:00</time>
      </trkpt>
      <trkpt lat="44.69212" lon="5.43273">
        <ele>535</ele>
        <time>2018-09-24T08:22:34+02:00</time>
      </trkpt>
      <trkpt lat="44.6923" lon="5.43276">
        <ele>535</ele>
        <time>2018-09-24T08:22:56+02:00</time>
      </trkpt>
      <trkpt lat="44.69266" lon="5.43268">
        <ele>539</ele>
        <time>2018-09-24T08:23:39+02:00</time>
      </trkpt>
      <trkpt lat="44.69292" lon="5.43231">
        <ele>539</ele>
        <time>2018-09-24T08:24:09+02:00</time>
      </trkpt>
      <trkpt lat="44.69311" lon="5.43188">
        <ele>538</ele>
        <time>2018-09-24T08:24:38+02:00</time>
      </trkpt>
      <trkpt lat="44.69326" lon="5.43139">
        <ele>536</ele>
        <time>2018-09-24T08:25:08+02:00</time>
      </trkpt>
      <trkpt lat="44.69337" lon="5.43119">
        <ele>535</ele>
        <time>2018-09-24T08:25:22+02:00</time>
      </trkpt>
      <trkpt lat="44.69365" lon="5.43086">
        <ele>533</ele>
        <time>2018-09-24T08:25:53+02:00</time>
      </trkpt>
      <trkpt lat="44.69398" lon="5.43065">
        <ele>535</ele>
        <time>2018-09-24T08:26:22+02:00</time>
      </trkpt>
      <trkpt lat="44.69433" lon="5.4305">
        <ele>535</ele>
        <time>2018-09-24T08:26:52+02:00</time>
      </trkpt>
      <trkpt lat="44.69452" lon="5.43056">
        <ele>535</ele>
        <time>2018-09-24T08:27:09+02:00</time>
      </trkpt>
      <trkpt lat="44.69485" lon="5.43076">
        <ele>532</ele>
        <time>2018-09-24T08:27:36+02:00</time>
      </trkpt>
      <trkpt lat="44.69517" lon="5.43048">
        <ele>529</ele>
        <time>2018-09-24T08:28:04+02:00</time>
      </trkpt>
      <trkpt lat="44.69552" lon="5.43032">
        <ele>535</ele>
        <time>2018-09-24T08:28:37+02:00</time>
      </trkpt>
      <trkpt lat="44.69571" lon="5.43029">
        <ele>535</ele>
        <time>2018-09-24T08:28:53+02:00</time>
      </trkpt>
      <trkpt lat="44.69597" lon="5.43122">
        <ele>541</ele>
        <time>2018-09-24T08:30:15+02:00</time>
      </trkpt>
      <trkpt lat="44.69618" lon="5.43165">
        <ele>543</ele>
        <time>2018-09-24T08:30:49+02:00</time>
      </trkpt>
      <trkpt lat="44.69642" lon="5.43203">
        <ele>546</ele>
        <time>2018-09-24T08:31:28+02:00</time>
      </trkpt>
      <trkpt lat="44.69661" lon="5.43276">
        <ele>551</ele>
        <time>2018-09-24T08:32:17+02:00</time>
      </trkpt>
      <trkpt lat="44.69659" lon="5.43317">
        <ele>555</ele>
        <time>2018-09-24T08:33:15+02:00</time>
      </trkpt>
      <trkpt lat="44.69668" lon="5.4343">
        <ele>560</ele>
      </trkpt>
      <trkpt lat="44.69681" lon="5.43481">
        <ele>569</ele>
        <time>2018-09-24T08:35:03+02:00</time>
      </trkpt>
      <trkpt lat="44.69695" lon="5.43504">
        <ele>570</ele>
        <time>2018-09-24T08:36:43+02:00</time>
      </trkpt>
      <trkpt lat="44.69709" lon="5.43605">
        <ele>570</ele>
        <time>2018-09-24T08:38:01+02:00</time>
      </trkpt>
      <trkpt lat="44.69718" lon="5.43627">
        <ele>571</ele>
        <time>2018-09-24T08:38:16+02:00</time>
      </trkpt>
      <trkpt lat="44.69754" lon="5.43617">
        <ele>576</ele>
        <time>2018-09-24T08:40:55+02:00</time>
      </trkpt>
      <trkpt lat="44.69791" lon="5.4361">
        <ele>576</ele>
        <time>2018-09-24T08:41:26+02:00</time>
      </trkpt>
      <trkpt lat="44.69806" lon="5.43626">
        <ele>578</ele>
        <time>2018-09-24T08:41:42+02:00</time>
      </trkpt>
      <trkpt lat="44.69818" lon="5.43675">
        <ele>581</ele>
        <time>2018-09-24T08:42:17+02:00</time>
      </trkpt>
      <trkpt lat="44.69837" lon="5.43719">
        <ele>583</ele>
        <time>2018-09-24T08:42:57+02:00</time>
      </trkpt>
      <trkpt lat="44.69843" lon="5.43772">
        <ele>588</ele>
        <time>2018-09-24T08:43:33+02:00</time>
      </trkpt>
      <trkpt lat="44.69858" lon="5.43785">
        <ele>591</ele>
        <time>2018-09-24T08:43:50+02:00</time>
      </trkpt>
      <trkpt lat="44.6987" lon="5.43773">
        <ele>596</ele>
        <time>2018-09-24T08:44:08+02:00</time>
      </trkpt>
      <trkpt lat="44.69872" lon="5.43722">
        <ele>595</ele>
        <time>2018-09-24T08:44:42+02:00</time>
      </trkpt>
      <trkpt lat="44.69892" lon="5.43678">
        <ele>595</ele>
      </trkpt>
      <trkpt lat="44.69929" lon="5.43642">
        <ele>596</ele>
        <time>2018-09-24T08:45:49+02:00</time>
      </trkpt>
      <trkpt lat="44.69948" lon="5.43638">
        <ele>600</ele>
        <time>2018-09-24T08:46:05+02:00</time>
      </trkpt>
      <trkpt lat="44.69965" lon="5.43646">
        <ele>601</ele>
        <time>2018-09-24T08:46:21+02:00</time>
      </trkpt>
      <trkpt lat="44.69977" lon="5.43627">
        <ele>603</ele>
        <time>2018-09-24T08:46:38+02:00</time>
      </trkpt>
      <trkpt lat="44.69988" lon="5.43578">
        <ele>602</ele>
        <time>2018-09-24T08:47:08+02:00</time>
      </trkpt>
      <trkpt lat="44.70016" lon="5.43524">
        <ele>601</ele>
        <time>2018-09-24T08:47:37+02:00</time>
      </trkpt>
      <trkpt lat="44.70042" lon="5.4351">
        <ele>597</ele>
        <time>2018-09-24T08:48:08+02:00</time>
      </trkpt>
      <trkpt lat="44.7006" lon="5.43505">
        <ele>598</ele>
        <time>2018-09-24T08:48:51+02:00</time>
      </trkpt>
      <trkpt lat="44.70076" lon="5.43519">
        <ele>600</ele>
        <time>2018-09-24T08:50:56+02:00</time>
      </trkpt>
      <trkpt lat="44.70119" lon="5.43604">
        <ele>603</ele>
        <time>2018-09-24T08:51:56+02:00</time>
      </trkpt>
      <trkpt lat="44.70135" lon="5.4365">
        <ele>597</ele>
        <time>2018-09-24T08:52:24+02:00</time>
      </trkpt>
      <trkpt lat="44.70154" lon="5.43652">
        <ele>593</ele>
        <time>2018-09-24T08:52:41+02:00</time>
      </trkpt>
      <trkpt lat="44.70182" lon="5.43617">
        <ele>597</ele>
        <time>2018-09-24T08:53:12+02:00</time>
      </trkpt>
      <trkpt lat="44.70208" lon="5.43581">
        <ele>601</ele>
        <time>2018-09-24T08:53:42+02:00</time>
      </trkpt>
      <trkpt lat="44.70232" lon="5.43541">
        <ele>603</ele>
        <time>2018-09-24T08:54:15+02:00</time>
      </trkpt>
      <trkpt lat="44.70268" lon="5.43525">
        <ele>601</ele>
        <time>2018-09-24T08:54:46+02:00</time>
      </trkpt>
      <trkpt lat="44.70352" lon="5.43498">
        <ele>605</ele>
      </trkpt>
      <trkpt lat="44.70382" lon="5.43467">
        <ele>606</ele>
        <time>2018-09-24T09:05:36+02:00</time>
      </trkpt>
      <trkpt lat="44.70434" lon="5.43406">
        <ele>600</ele>
        <time>2018-09-24T09:06:21+02:00</time>
      </trkpt>
      <trkpt lat="44.70468" lon="5.43372">
        <ele>597</ele>
        <time>2018-09-24T09:07:08+02:00</time>
      </trkpt>
      <trkpt lat="44.70522" lon="5.43367">
        <ele>596</ele>
        <time>2018-09-24T09:07:53+02:00</time>
      </trkpt>
      <trkpt lat="44.70538" lon="5.43355">
        <ele>595</ele>
        <time>2018-09-24T09:08:10+02:00</time>
      </trkpt>
      <trkpt lat="44.7055" lon="5.43335">
        <ele>599</ele>
        <time>2018-09-24T09:08:41+02:00</time>
      </trkpt>
      <trkpt lat="44.70537" lon="5.43312">
        <ele>588</ele>
      </trkpt>
      <trkpt lat="44.70534" lon="5.43284">
        <ele>588</ele>
      </trkpt>
      <trkpt lat="44.70546" lon="5.43283">
        <ele>585</ele>
        <time>2018-09-24T09:08:59+02:00</time>
      </trkpt>
      <trkpt lat="44.70559" lon="5.43325">
        <ele>586</ele>
        <time>2018-09-24T09:09:41+02:00</time>
      </trkpt>
      <trkpt lat="44.70577" lon="5.43329">
        <ele>594</ele>
        <time>2018-09-24T09:09:57+02:00</time>
      </trkpt>
      <trkpt lat="44.70587" lon="5.43309">
        <ele>588</ele>
        <time>2018-09-24T09:10:26+02:00</time>
      </trkpt>
      <trkpt lat="44.7058" lon="5.43258">
        <ele>583</ele>
        <time>2018-09-24T09:10:57+02:00</time>
      </trkpt>
      <trkpt lat="44.70581" lon="5.43233">
        <ele>580</ele>
        <time>2018-09-24T09:11:13+02:00</time>
      </trkpt>
      <trkpt lat="44.70584" lon="5.43182">
        <ele>574</ele>
        <time>2018-09-24T09:11:46+02:00</time>
      </trkpt>
      <trkpt lat="44.7059" lon="5.4313">
        <ele>569</ele>
        <time>2018-09-24T09:12:20+02:00</time>
      </trkpt>
      <trkpt lat="44.70582" lon="5.43053">
        <ele>559</ele>
        <time>2018-09-24T09:13:06+02:00</time>
      </trkpt>
      <trkpt lat="44.70582" lon="5.43027">
        <ele>557</ele>
        <time>2018-09-24T09:13:20+02:00</time>
      </trkpt>
      <trkpt lat="44.70592" lon="5.43006">
        <ele>558</ele>
        <time>2018-09-24T09:13:39+02:00</time>
      </trkpt>
      <trkpt lat="44.70606" lon="5.42989">
        <ele>560</ele>
        <time>2018-09-24T09:13:56+02:00</time>
      </trkpt>
      <trkpt lat="44.70735" lon="5.42999">
        <ele>562</ele>
        <time>2018-09-24T09:17:39+02:00</time>
      </trkpt>
      <trkpt lat="44.70784" lon="5.42998">
        <ele>557</ele>
        <time>2018-09-24T09:18:11+02:00</time>
      </trkpt>
      <trkpt lat="44.70903" lon="5.42992">
        <ele>566</ele>
        <time>2018-09-24T09:19:51+02:00</time>
      </trkpt>
      <trkpt lat="44.70921" lon="5.42999">
        <ele>567</ele>
        <time>2018-09-24T09:20:06+02:00</time>
      </trkpt>
      <trkpt lat="44.70942" lon="5.43042">
        <ele>565</ele>
        <time>2018-09-24T09:22:00+02:00</time>
      </trkpt>
      <trkpt lat="44.70981" lon="5.43097">
        <ele>564</ele>
        <time>2018-09-24T09:22:46+02:00</time>
      </trkpt>
      <trkpt lat="44.70998" lon="5.4311">
        <ele>562</ele>
        <time>2018-09-24T09:23:03+02:00</time>
      </trkpt>
      <trkpt lat="44.71016" lon="5.43111">
        <ele>562</ele>
        <time>2018-09-24T09:23:17+02:00</time>
      </trkpt>
      <trkpt lat="44.71088" lon="5.4309">
        <ele>567</ele>
        <time>2018-09-24T09:24:19+02:00</time>
      </trkpt>
      <trkpt lat="44.71219" lon="5.43109">
        <ele>558</ele>
        <time>2018-09-24T09:26:05+02:00</time>
      </trkpt>
      <trkpt lat="44.71236" lon="5.43098">
        <ele>557</ele>
        <time>2018-09-24T09:26:21+02:00</time>
      </trkpt>
      <trkpt lat="44.71265" lon="5.43064">
        <ele>559</ele>
        <time>2018-09-24T09:28:04+02:00</time>
      </trkpt>
      <trkpt lat="44.71258" lon="5.4304">
        <ele>558</ele>
        <time>2018-09-24T09:28:19+02:00</time>
      </trkpt>
      <trkpt lat="44.71237" lon="5.42987">
        <ele>550</ele>
        <time>2018-09-24T09:28:33+02:00</time>
      </trkpt>
      <trkpt lat="44.71211" lon="5.42869">
        <ele>545</ele>
        <time>2018-09-24T09:30:01+02:00</time>
      </trkpt>
      <trkpt lat="44.71194" lon="5.42822">
        <ele>544</ele>
        <time>2018-09-24T09:30:29+02:00</time>
      </trkpt>
      <trkpt lat="44.71153" lon="5.42769">
        <ele>541</ele>
        <time>2018-09-24T09:31:12+02:00</time>
      </trkpt>
      <trkpt lat="44.71112" lon="5.42654">
        <ele>543</ele>
        <time>2018-09-24T09:32:25+02:00</time>
      </trkpt>
      <trkpt lat="44.7111" lon="5.42628">
        <ele>543</ele>
        <time>2018-09-24T09:32:40+02:00</time>
      </trkpt>
      <trkpt lat="44.71105" lon="5.42601">
        <ele>544</ele>
        <time>2018-09-24T09:32:58+02:00</time>
      </trkpt>
      <trkpt lat="44.71073" lon="5.42373">
        <ele>536</ele>
        <time>2018-09-24T09:35:35+02:00</time>
      </trkpt>
      <trkpt lat="44.71065" lon="5.42297">
        <ele>532</ele>
        <time>2018-09-24T09:36:20+02:00</time>
      </trkpt>
      <trkpt lat="44.7106" lon="5.42168">
        <ele>524</ele>
        <time>2018-09-24T09:37:33+02:00</time>
      </trkpt>
      <trkpt lat="44.71063" lon="5.42143">
        <ele>523</ele>
        <time>2018-09-24T09:37:48+02:00</time>
      </trkpt>
      <trkpt lat="44.71069" lon="5.42118">
        <ele>523</ele>
        <time>2018-09-24T09:38:03+02:00</time>
      </trkpt>
      <trkpt lat="44.71105" lon="5.41999">
        <ele>515</ele>
        <time>2018-09-24T09:39:18+02:00</time>
      </trkpt>
      <trkpt lat="44.71146" lon="5.41858">
        <ele>518</ele>
        <time>2018-09-24T09:41:41+02:00</time>
      </trkpt>
      <trkpt lat="44.71146" lon="5.41807">
        <ele>522</ele>
        <time>2018-09-24T09:42:26+02:00</time>
      </trkpt>
      <trkpt lat="44.71144" lon="5.41756">
        <ele>524</ele>
        <time>2018-09-24T09:43:03+02:00</time>
      </trkpt>
      <trkpt lat="44.71141" lon="5.41704">
        <ele>521</ele>
        <time>2018-09-24T09:44:46+02:00</time>
      </trkpt>
      <trkpt lat="44.71144" lon="5.41653">
        <ele>517</ele>
        <time>2018-09-24T09:45:17+02:00</time>
      </trkpt>
      <trkpt lat="44.71152" lon="5.41622">
        <ele>510</ele>
        <time>2018-09-24T10:00:32+02:00</time>
      </trkpt>
      <trkpt lat="44.71204" lon="5.41601">
        <ele>512</ele>
        <time>2018-09-24T10:01:49+02:00</time>
      </trkpt>
      <trkpt lat="44.71222" lon="5.41607">
        <ele>512</ele>
        <time>2018-09-24T10:02:07+02:00</time>
      </trkpt>
      <trkpt lat="44.71256" lon="5.41625">
        <ele>513</ele>
        <time>2018-09-24T10:02:55+02:00</time>
      </trkpt>
      <trkpt lat="44.71293" lon="5.4162">
        <ele>515</ele>
        <time>2018-09-24T10:04:19+02:00</time>
      </trkpt>
      <trkpt lat="44.7131" lon="5.41603">
        <ele>508</ele>
        <time>2018-09-24T10:04:37+02:00</time>
      </trkpt>
      <trkpt lat="44.71332" lon="5.41451">
        <ele>505</ele>
        <time>2018-09-24T10:07:26+02:00</time>
      </trkpt>
      <trkpt lat="44.71408" lon="5.41376">
        <ele>508</ele>
        <time>2018-09-24T10:08:40+02:00</time>
      </trkpt>
      <trkpt lat="44.71498" lon="5.41351">
        <ele>490</ele>
        <time>2018-09-24T10:10:10+02:00</time>
      </trkpt>
      <trkpt lat="44.71514" lon="5.41321">
        <ele>494</ele>
        <time>2018-09-24T10:10:38+02:00</time>
      </trkpt>
      <trkpt lat="44.71548" lon="5.41298">
        <ele>495</ele>
        <time>2018-09-24T10:11:12+02:00</time>
      </trkpt>
      <trkpt lat="44.71574" lon="5.41285">
        <ele>497</ele>
        <time>2018-09-24T10:11:29+02:00</time>
      </trkpt>
      <trkpt lat="44.71604" lon="5.41252">
        <ele>495</ele>
        <time>2018-09-24T10:12:00+02:00</time>
      </trkpt>
      <trkpt lat="44.71635" lon="5.41222">
        <ele>491</ele>
        <time>2018-09-24T10:12:32+02:00</time>
      </trkpt>
      <trkpt lat="44.71647" lon="5.41202">
        <ele>490</ele>
        <time>2018-09-24T10:12:46+02:00</time>
      </trkpt>
      <trkpt lat="44.71664" lon="5.41194">
        <ele>489</ele>
        <time>2018-09-24T10:13:01+02:00</time>
      </trkpt>
      <trkpt lat="44.71683" lon="5.41195">
        <ele>487</ele>
        <time>2018-09-24T10:13:16+02:00</time>
      </trkpt>
      <trkpt lat="44.71718" lon="5.4121">
        <ele>481</ele>
        <time>2018-09-24T10:13:45+02:00</time>
      </trkpt>
      <trkpt lat="44.71798" lon="5.4116">
        <ele>477</ele>
        <time>2018-09-24T10:14:58+02:00</time>
      </trkpt>
      <trkpt lat="44.7181" lon="5.4119">
        <ele>471</ele>
        <time>2018-09-24T10:15:15+02:00</time>
      </trkpt>
      <trkpt lat="44.71821" lon="5.41211">
        <ele>470</ele>
        <time>2018-09-24T10:15:31+02:00</time>
      </trkpt>
      <trkpt lat="44.71839" lon="5.41203">
        <ele>471</ele>
        <time>2018-09-24T10:15:46+02:00</time>
      </trkpt>
      <trkpt lat="44.7185" lon="5.41183">
        <ele>472</ele>
        <time>2018-09-24T10:16:00+02:00</time>
      </trkpt>
      <trkpt lat="44.71875" lon="5.41145">
        <ele>478</ele>
        <time>2018-09-24T10:16:30+02:00</time>
      </trkpt>
      <trkpt lat="44.7192" lon="5.41098">
        <ele>481</ele>
        <time>2018-09-24T10:17:11+02:00</time>
      </trkpt>
      <trkpt lat="44.71936" lon="5.41086">
        <ele>482</ele>
        <time>2018-09-24T10:17:27+02:00</time>
      </trkpt>
      <trkpt lat="44.71955" lon="5.41086">
        <ele>484</ele>
        <time>2018-09-24T10:17:40+02:00</time>
      </trkpt>
      <trkpt lat="44.71967" lon="5.41066">
        <ele>486</ele>
        <time>2018-09-24T10:20:22+02:00</time>
      </trkpt>
      <trkpt lat="44.71984" lon="5.41058">
        <ele>484</ele>
        <time>2018-09-24T10:21:04+02:00</time>
      </trkpt>
      <trkpt lat="44.71987" lon="5.41032">
        <ele>480</ele>
        <time>2018-09-24T10:21:51+02:00</time>
      </trkpt>
      <trkpt lat="44.71996" lon="5.41009">
        <ele>477</ele>
        <time>2018-09-24T10:22:20+02:00</time>
      </trkpt>
      <trkpt lat="44.71995" lon="5.40977">
        <ele>476</ele>
        <time>2018-09-24T10:24:21+02:00</time>
      </trkpt>
      <trkpt lat="44.72009" lon="5.4096">
        <ele>476</ele>
        <time>2018-09-24T10:25:09+02:00</time>
      </trkpt>
      <trkpt lat="44.7204" lon="5.40931">
        <ele>475</ele>
        <time>2018-09-24T10:25:48+02:00</time>
      </trkpt>
      <trkpt lat="44.7206" lon="5.40889">
        <ele>469</ele>
        <time>2018-09-24T10:27:07+02:00</time>
      </trkpt>
      <trkpt lat="44.72089" lon="5.40829">
        <ele>467</ele>
        <time>2018-09-24T10:28:12+02:00</time>
      </trkpt>
      <trkpt lat="44.72111" lon="5.40815">
        <ele>458</ele>
        <time>2018-09-24T10:28:31+02:00</time>
      </trkpt>
      <trkpt lat="44.7212" lon="5.40793">
        <ele>456</ele>
        <time>2018-09-24T10:28:50+02:00</time>
      </trkpt>
      <trkpt lat="44.72141" lon="5.40749">
        <ele>454</ele>
        <time>2018-09-24T10:29:21+02:00</time>
      </trkpt>
      <trkpt lat="44.72138" lon="5.40723">
        <ele>454</ele>
        <time>2018-09-24T10:29:39+02:00</time>
      </trkpt>
      <trkpt lat="44.72133" lon="5.40698">
        <ele>454</ele>
        <time>2018-09-24T10:29:55+02:00</time>
      </trkpt>
      <trkpt lat="44.72108" lon="5.40546">
        <ele>443</ele>
        <time>2018-09-24T10:31:28+02:00</time>
      </trkpt>
      <trkpt lat="44.72116" lon="5.4052">
        <ele>443</ele>
        <time>2018-09-24T10:31:43+02:00</time>
      </trkpt>
      <trkpt lat="44.72115" lon="5.40467">
        <ele>446</ele>
        <time>2018-09-24T10:32:14+02:00</time>
      </trkpt>
      <trkpt lat="44.72128" lon="5.40449">
        <ele>443</ele>
        <time>2018-09-24T10:36:49+02:00</time>
      </trkpt>
      <trkpt lat="44.72161" lon="5.40428">
        <ele>445</ele>
        <time>2018-09-24T10:37:19+02:00</time>
      </trkpt>
      <trkpt lat="44.72188" lon="5.40394">
        <ele>447</ele>
        <time>2018-09-24T10:38:05+02:00</time>
      </trkpt>
      <trkpt lat="44.72218" lon="5.40362">
        <ele>445</ele>
        <time>2018-09-24T10:39:22+02:00</time>
      </trkpt>
      <trkpt lat="44.72231" lon="5.40344">
        <ele>445</ele>
        <time>2018-09-24T10:39:37+02:00</time>
      </trkpt>
      <trkpt lat="44.72247" lon="5.40327">
        <ele>446</ele>
        <time>2018-09-24T10:39:51+02:00</time>
      </trkpt>
      <trkpt lat="44.72292" lon="5.40283">
        <ele>440</ele>
        <time>2018-09-24T10:40:33+02:00</time>
      </trkpt>
      <trkpt lat="44.72322" lon="5.40253">
        <ele>440</ele>
        <time>2018-09-24T10:41:04+02:00</time>
      </trkpt>
      <trkpt lat="44.72351" lon="5.40219">
        <ele>438</ele>
        <time>2018-09-24T10:41:34+02:00</time>
      </trkpt>
      <trkpt lat="44.72394" lon="5.40172">
        <ele>435</ele>
        <time>2018-09-24T10:42:13+02:00</time>
      </trkpt>
      <trkpt lat="44.72419" lon="5.40134">
        <ele>435</ele>
        <time>2018-09-24T10:42:41+02:00</time>
      </trkpt>
      <trkpt lat="44.72432" lon="5.40116">
        <ele>436</ele>
        <time>2018-09-24T10:42:56+02:00</time>
      </trkpt>
      <trkpt lat="44.7246" lon="5.4008">
        <ele>436</ele>
        <time>2018-09-24T10:43:25+02:00</time>
      </trkpt>
      <trkpt lat="44.72493" lon="5.40058">
        <ele>435</ele>
        <time>2018-09-24T10:43:54+02:00</time>
      </trkpt>
      <trkpt lat="44.7251" lon="5.40044">
        <ele>434</ele>
        <time>2018-09-24T10:44:10+02:00</time>
      </trkpt>
      <trkpt lat="44.72545" lon="5.4003">
        <ele>435</ele>
        <time>2018-09-24T10:44:34+02:00</time>
      </trkpt>
      <trkpt lat="44.72563" lon="5.40026">
        <ele>436</ele>
        <time>2018-09-24T10:44:53+02:00</time>
      </trkpt>
      <trkpt lat="44.72549" lon="5.39976">
        <ele>436</ele>
        <time>2018-09-24T10:54:33+02:00</time>
      </trkpt>
      <trkpt lat="44.72526" lon="5.39937">
        <ele>432</ele>
        <time>2018-09-24T10:55:05+02:00</time>
      </trkpt>
      <trkpt lat="44.72508" lon="5.39883">
        <ele>430</ele>
        <time>2018-09-24T10:55:38+02:00</time>
      </trkpt>
      <trkpt lat="44.72544" lon="5.39847">
        <ele>423</ele>
        <time>2018-09-24T10:56:10+02:00</time>
      </trkpt>
      <trkpt lat="44.7257" lon="5.39808">
        <ele>426</ele>
        <time>2018-09-24T10:56:42+02:00</time>
      </trkpt>
      <trkpt lat="44.72606" lon="5.39747">
        <ele>424</ele>
        <time>2018-09-24T10:57:23+02:00</time>
      </trkpt>
      <trkpt lat="44.72625" lon="5.39702">
        <ele>424</ele>
        <time>2018-09-24T10:57:52+02:00</time>
      </trkpt>
      <trkpt lat="44.72647" lon="5.39659">
        <ele>423</ele>
        <time>2018-09-24T10:59:08+02:00</time>
      </trkpt>
      <trkpt lat="44.72655" lon="5.39635">
        <ele>423</ele>
        <time>2018-09-24T10:59:24+02:00</time>
      </trkpt>
      <trkpt lat="44.72663" lon="5.39582">
        <ele>427</ele>
        <time>2018-09-24T10:59:55+02:00</time>
      </trkpt>
      <trkpt lat="44.72694" lon="5.39553">
        <ele>427</ele>
        <time>2018-09-24T11:01:16+02:00</time>
      </trkpt>
      <trkpt lat="44.72726" lon="5.39528">
        <ele>427</ele>
        <time>2018-09-24T11:01:44+02:00</time>
      </trkpt>
      <trkpt lat="44.72755" lon="5.39497">
        <ele>429</ele>
        <time>2018-09-24T11:02:18+02:00</time>
      </trkpt>
      <trkpt lat="44.72777" lon="5.39455">
        <ele>430</ele>
        <time>2018-09-24T11:03:10+02:00</time>
      </trkpt>
      <trkpt lat="44.7278" lon="5.39431">
        <ele>434</ele>
      </trkpt>
      <trkpt lat="44.72796" lon="5.3941">
        <ele>430</ele>
        <time>2018-09-24T11:04:35+02:00</time>
      </trkpt>
      <trkpt lat="44.72813" lon="5.394">
        <ele>431</ele>
        <time>2018-09-24T11:04:49+02:00</time>
      </trkpt>
      <trkpt lat="44.72839" lon="5.39363">
        <ele>426</ele>
        <time>2018-09-24T11:05:21+02:00</time>
      </trkpt>
      <trkpt lat="44.72871" lon="5.39388">
        <ele>424</ele>
        <time>2018-09-24T11:06:29+02:00</time>
      </trkpt>
      <trkpt lat="44.7289" lon="5.39388">
        <ele>426</ele>
        <time>2018-09-24T11:06:53+02:00</time>
      </trkpt>
      <trkpt lat="44.72922" lon="5.39417">
        <ele>427</ele>
        <time>2018-09-24T11:07:27+02:00</time>
      </trkpt>
      <trkpt lat="44.72932" lon="5.39439">
        <ele>429</ele>
        <time>2018-09-24T11:08:08+02:00</time>
      </trkpt>
      <trkpt lat="44.72959" lon="5.39535">
        <ele>431</ele>
        <time>2018-09-24T11:09:08+02:00</time>
      </trkpt>
      <trkpt lat="44.72971" lon="5.39585">
        <ele>433</ele>
        <time>2018-09-24T11:09:42+02:00</time>
      </trkpt>
      <trkpt lat="44.72981" lon="5.39607">
        <ele>434</ele>
        <time>2018-09-24T11:09:56+02:00</time>
      </trkpt>
      <trkpt lat="44.72986" lon="5.39632">
        <ele>435</ele>
        <time>2018-09-24T11:10:47+02:00</time>
      </trkpt>
      <trkpt lat="44.73002" lon="5.39644">
        <ele>435</ele>
        <time>2018-09-24T11:11:47+02:00</time>
      </trkpt>
      <trkpt lat="44.73012" lon="5.39666">
        <ele>434</ele>
        <time>2018-09-24T11:12:30+02:00</time>
      </trkpt>
      <trkpt lat="44.73028" lon="5.3968">
        <ele>434</ele>
        <time>2018-09-24T11:12:46+02:00</time>
      </trkpt>
      <trkpt lat="44.73045" lon="5.39691">
        <ele>435</ele>
        <time>2018-09-24T11:13:01+02:00</time>
      </trkpt>
      <trkpt lat="44.73061" lon="5.39704">
        <ele>435</ele>
        <time>2018-09-24T11:13:16+02:00</time>
      </trkpt>
      <trkpt lat="44.73088" lon="5.39738">
        <ele>438</ele>
        <time>2018-09-24T11:13:45+02:00</time>
      </trkpt>
      <trkpt lat="44.73102" lon="5.39755">
        <ele>439</ele>
        <time>2018-09-24T11:14:01+02:00</time>
      </trkpt>
      <trkpt lat="44.73116" lon="5.39773">
        <ele>441</ele>
        <time>2018-09-24T11:14:17+02:00</time>
      </trkpt>
      <trkpt lat="44.73127" lon="5.39793">
        <ele>442</ele>
        <time>2018-09-24T11:14:31+02:00</time>
      </trkpt>
      <trkpt lat="44.7314" lon="5.3981">
        <ele>443</ele>
        <time>2018-09-24T11:14:47+02:00</time>
      </trkpt>
      <trkpt lat="44.73166" lon="5.39849">
        <ele>446</ele>
        <time>2018-09-24T11:17:00+02:00</time>
      </trkpt>
      <trkpt lat="44.73182" lon="5.39863">
        <ele>447</ele>
        <time>2018-09-24T11:17:18+02:00</time>
      </trkpt>
      <trkpt lat="44.73193" lon="5.39885">
        <ele>449</ele>
        <time>2018-09-24T11:17:33+02:00</time>
      </trkpt>
      <trkpt lat="44.73212" lon="5.39929">
        <ele>454</ele>
        <time>2018-09-24T11:18:10+02:00</time>
      </trkpt>
      <trkpt lat="44.73225" lon="5.39948">
        <ele>453</ele>
        <time>2018-09-24T11:18:25+02:00</time>
      </trkpt>
      <trkpt lat="44.73236" lon="5.39968">
        <ele>452</ele>
        <time>2018-09-24T11:18:39+02:00</time>
      </trkpt>
      <trkpt lat="44.73247" lon="5.39988">
        <ele>452</ele>
        <time>2018-09-24T11:18:55+02:00</time>
      </trkpt>
      <trkpt lat="44.73257" lon="5.40011">
        <ele>453</ele>
        <time>2018-09-24T11:19:09+02:00</time>
      </trkpt>
      <trkpt lat="44.73268" lon="5.40032">
        <ele>455</ele>
        <time>2018-09-24T11:19:25+02:00</time>
      </trkpt>
      <trkpt lat="44.73278" lon="5.40052">
        <ele>455</ele>
        <time>2018-09-24T11:19:39+02:00</time>
      </trkpt>
      <trkpt lat="44.73291" lon="5.40072">
        <ele>456</ele>
        <time>2018-09-24T11:19:52+02:00</time>
      </trkpt>
      <trkpt lat="44.73298" lon="5.40096">
        <ele>455</ele>
        <time>2018-09-24T11:20:19+02:00</time>
      </trkpt>
      <trkpt lat="44.73311" lon="5.40115">
        <ele>455</ele>
        <time>2018-09-24T11:20:36+02:00</time>
      </trkpt>
      <trkpt lat="44.73325" lon="5.40131">
        <ele>455</ele>
        <time>2018-09-24T11:20:52+02:00</time>
      </trkpt>
      <trkpt lat="44.73341" lon="5.40145">
        <ele>454</ele>
        <time>2018-09-24T11:21:07+02:00</time>
      </trkpt>
      <trkpt lat="44.73352" lon="5.40165">
        <ele>468</ele>
        <time>2018-09-24T11:58:26+02:00</time>
      </trkpt>
      <trkpt lat="44.73368" lon="5.40177">
        <ele>470</ele>
        <time>2018-09-24T11:58:46+02:00</time>
      </trkpt>
      <trkpt lat="44.73383" lon="5.40193">
        <ele>472</ele>
        <time>2018-09-24T11:59:11+02:00</time>
      </trkpt>
      <trkpt lat="44.73396" lon="5.40211">
        <ele>475</ele>
        <time>2018-09-24T11:59:30+02:00</time>
      </trkpt>
      <trkpt lat="44.73409" lon="5.4023">
        <ele>475</ele>
        <time>2018-09-24T11:59:48+02:00</time>
      </trkpt>
      <trkpt lat="44.7342" lon="5.40249">
        <ele>475</ele>
        <time>2018-09-24T12:00:05+02:00</time>
      </trkpt>
      <trkpt lat="44.73435" lon="5.40265">
        <ele>475</ele>
        <time>2018-09-24T12:00:20+02:00</time>
      </trkpt>
      <trkpt lat="44.73444" lon="5.40287">
        <ele>473</ele>
        <time>2018-09-24T12:00:38+02:00</time>
      </trkpt>
      <trkpt lat="44.73455" lon="5.40309">
        <ele>475</ele>
        <time>2018-09-24T12:00:53+02:00</time>
      </trkpt>
      <trkpt lat="44.73469" lon="5.40327">
        <ele>476</ele>
        <time>2018-09-24T12:01:09+02:00</time>
      </trkpt>
      <trkpt lat="44.7348" lon="5.40347">
        <ele>480</ele>
        <time>2018-09-24T12:01:36+02:00</time>
      </trkpt>
      <trkpt lat="44.73498" lon="5.40337">
        <ele>481</ele>
        <time>2018-09-24T12:01:53+02:00</time>
      </trkpt>
      <trkpt lat="44.73514" lon="5.4035">
        <ele>481</ele>
        <time>2018-09-24T12:02:21+02:00</time>
      </trkpt>
      <trkpt lat="44.73532" lon="5.40345">
        <ele>483</ele>
        <time>2018-09-24T12:02:49+02:00</time>
      </trkpt>
      <trkpt lat="44.73547" lon="5.40329">
        <ele>481</ele>
        <time>2018-09-24T12:03:05+02:00</time>
      </trkpt>
      <trkpt lat="44.73562" lon="5.40313">
        <ele>477</ele>
        <time>2018-09-24T12:03:21+02:00</time>
      </trkpt>
      <trkpt lat="44.73577" lon="5.40299">
        <ele>475</ele>
        <time>2018-09-24T12:03:36+02:00</time>
      </trkpt>
      <trkpt lat="44.73594" lon="5.40287">
        <ele>471</ele>
        <time>2018-09-24T12:03:51+02:00</time>
      </trkpt>
      <trkpt lat="44.73607" lon="5.40269">
        <ele>470</ele>
        <time>2018-09-24T12:04:07+02:00</time>
      </trkpt>
      <trkpt lat="44.73602" lon="5.40257">
        <ele>468</ele>
        <time>2018-09-24T12:05:57+02:00</time>
      </trkpt>
      <trkpt lat="44.73614" lon="5.40237">
        <ele>469</ele>
        <time>2018-09-24T12:08:32+02:00</time>
      </trkpt>
      <trkpt lat="44.73602" lon="5.40203">
        <ele>467</ele>
        <time>2018-09-24T12:09:15+02:00</time>
      </trkpt>
      <trkpt lat="44.73594" lon="5.4018">
        <ele>466</ele>
        <time>2018-09-24T12:09:40+02:00</time>
      </trkpt>
      <trkpt lat="44.736" lon="5.40155">
        <ele>463</ele>
        <time>2018-09-24T12:10:01+02:00</time>
      </trkpt>
      <trkpt lat="44.73605" lon="5.40131">
        <ele>460</ele>
        <time>2018-09-24T12:10:16+02:00</time>
      </trkpt>
      <trkpt lat="44.7361" lon="5.40105">
        <ele>457</ele>
        <time>2018-09-24T12:10:33+02:00</time>
      </trkpt>
      <trkpt lat="44.73612" lon="5.40079">
        <ele>454</ele>
        <time>2018-09-24T12:10:51+02:00</time>
      </trkpt>
      <trkpt lat="44.73619" lon="5.40055">
        <ele>451</ele>
        <time>2018-09-24T12:11:11+02:00</time>
      </trkpt>
      <trkpt lat="44.73628" lon="5.40032">
        <ele>450</ele>
        <time>2018-09-24T12:11:27+02:00</time>
      </trkpt>
      <trkpt lat="44.73637" lon="5.40008">
        <ele>447</ele>
        <time>2018-09-24T12:11:44+02:00</time>
      </trkpt>
      <trkpt lat="44.73643" lon="5.39983">
        <ele>448</ele>
        <time>2018-09-24T12:11:59+02:00</time>
      </trkpt>
      <trkpt lat="44.73642" lon="5.39958">
        <ele>449</ele>
        <time>2018-09-24T12:12:14+02:00</time>
      </trkpt>
      <trkpt lat="44.73647" lon="5.39932">
        <ele>450</ele>
        <time>2018-09-24T12:12:31+02:00</time>
      </trkpt>
      <trkpt lat="44.73656" lon="5.39909">
        <ele>452</ele>
        <time>2018-09-24T12:12:47+02:00</time>
      </trkpt>
      <trkpt lat="44.73667" lon="5.39887">
        <ele>452</ele>
        <time>2018-09-24T12:13:03+02:00</time>
      </trkpt>
      <trkpt lat="44.73677" lon="5.39865">
        <ele>451</ele>
        <time>2018-09-24T12:13:18+02:00</time>
      </trkpt>
      <trkpt lat="44.73699" lon="5.39825">
        <ele>452</ele>
        <time>2018-09-24T12:13:49+02:00</time>
      </trkpt>
      <trkpt lat="44.73714" lon="5.39809">
        <ele>452</ele>
        <time>2018-09-24T12:14:06+02:00</time>
      </trkpt>
      <trkpt lat="44.7373" lon="5.39796">
        <ele>450</ele>
        <time>2018-09-24T12:14:41+02:00</time>
      </trkpt>
      <trkpt lat="44.73761" lon="5.39768">
        <ele>451</ele>
        <time>2018-09-24T12:21:57+02:00</time>
      </trkpt>
      <trkpt lat="44.73779" lon="5.39758">
        <ele>450</ele>
        <time>2018-09-24T12:22:12+02:00</time>
      </trkpt>
      <trkpt lat="44.73792" lon="5.39739">
        <ele>450</ele>
        <time>2018-09-24T12:22:26+02:00</time>
      </trkpt>
      <trkpt lat="44.738" lon="5.39716">
        <ele>448</ele>
        <time>2018-09-24T12:22:41+02:00</time>
      </trkpt>
      <trkpt lat="44.73813" lon="5.39697">
        <ele>445</ele>
        <time>2018-09-24T12:22:59+02:00</time>
      </trkpt>
      <trkpt lat="44.73821" lon="5.39672">
        <ele>442</ele>
        <time>2018-09-24T12:23:15+02:00</time>
      </trkpt>
      <trkpt lat="44.73826" lon="5.39647">
        <ele>441</ele>
        <time>2018-09-24T12:23:29+02:00</time>
      </trkpt>
      <trkpt lat="44.73832" lon="5.39622">
        <ele>437</ele>
        <time>2018-09-24T12:23:45+02:00</time>
      </trkpt>
      <trkpt lat="44.7384" lon="5.39598">
        <ele>436</ele>
        <time>2018-09-24T12:24:01+02:00</time>
      </trkpt>
      <trkpt lat="44.73861" lon="5.39554">
        <ele>435</ele>
        <time>2018-09-24T12:24:29+02:00</time>
      </trkpt>
      <trkpt lat="44.7387" lon="5.39531">
        <ele>436</ele>
        <time>2018-09-24T12:24:44+02:00</time>
      </trkpt>
      <trkpt lat="44.73878" lon="5.39508">
        <ele>435</ele>
        <time>2018-09-24T12:25:00+02:00</time>
      </trkpt>
      <trkpt lat="44.73886" lon="5.39484">
        <ele>433</ele>
        <time>2018-09-24T12:25:16+02:00</time>
      </trkpt>
      <trkpt lat="44.73902" lon="5.39438">
        <ele>432</ele>
        <time>2018-09-24T12:25:45+02:00</time>
      </trkpt>
      <trkpt lat="44.73914" lon="5.39416">
        <ele>433</ele>
        <time>2018-09-24T12:26:00+02:00</time>
      </trkpt>
      <trkpt lat="44.73929" lon="5.39399">
        <ele>432</ele>
        <time>2018-09-24T12:26:14+02:00</time>
      </trkpt>
      <trkpt lat="44.73944" lon="5.39383">
        <ele>434</ele>
        <time>2018-09-24T12:26:32+02:00</time>
      </trkpt>
      <trkpt lat="44.73973" lon="5.39348">
        <ele>440</ele>
        <time>2018-09-24T12:27:00+02:00</time>
      </trkpt>
      <trkpt lat="44.73989" lon="5.39336">
        <ele>439</ele>
        <time>2018-09-24T12:27:15+02:00</time>
      </trkpt>
      <trkpt lat="44.74003" lon="5.39317">
        <ele>440</ele>
        <time>2018-09-24T12:27:30+02:00</time>
      </trkpt>
      <trkpt lat="44.74016" lon="5.393">
        <ele>438</ele>
        <time>2018-09-24T12:27:45+02:00</time>
      </trkpt>
      <trkpt lat="44.74029" lon="5.3928">
        <ele>437</ele>
        <time>2018-09-24T12:28:43+02:00</time>
      </trkpt>
      <trkpt lat="44.74052" lon="5.39241">
        <ele>436</ele>
        <time>2018-09-24T12:29:12+02:00</time>
      </trkpt>
      <trkpt lat="44.74068" lon="5.39227">
        <ele>436</ele>
        <time>2018-09-24T12:29:29+02:00</time>
      </trkpt>
      <trkpt lat="44.74087" lon="5.39221">
        <ele>435</ele>
        <time>2018-09-24T12:29:43+02:00</time>
      </trkpt>
      <trkpt lat="44.74105" lon="5.39215">
        <ele>437</ele>
        <time>2018-09-24T12:29:57+02:00</time>
      </trkpt>
      <trkpt lat="44.74123" lon="5.3921">
        <ele>439</ele>
        <time>2018-09-24T12:30:11+02:00</time>
      </trkpt>
      <trkpt lat="44.74139" lon="5.39196">
        <ele>441</ele>
        <time>2018-09-24T12:30:27+02:00</time>
      </trkpt>
      <trkpt lat="44.74151" lon="5.39177">
        <ele>440</ele>
        <time>2018-09-24T12:30:54+02:00</time>
      </trkpt>
      <trkpt lat="44.74167" lon="5.39163">
        <ele>440</ele>
        <time>2018-09-24T12:32:17+02:00</time>
      </trkpt>
      <trkpt lat="44.74183" lon="5.39154">
        <ele>438</ele>
        <time>2018-09-24T12:32:56+02:00</time>
      </trkpt>
      <trkpt lat="44.74214" lon="5.39125">
        <ele>435</ele>
        <time>2018-09-24T12:33:27+02:00</time>
      </trkpt>
      <trkpt lat="44.7423" lon="5.39111">
        <ele>434</ele>
        <time>2018-09-24T12:33:42+02:00</time>
      </trkpt>
      <trkpt lat="44.74244" lon="5.39094">
        <ele>433</ele>
        <time>2018-09-24T12:33:56+02:00</time>
      </trkpt>
      <trkpt lat="44.7426" lon="5.39082">
        <ele>431</ele>
        <time>2018-09-24T12:34:11+02:00</time>
      </trkpt>
      <trkpt lat="44.74293" lon="5.39057">
        <ele>429</ele>
        <time>2018-09-24T12:34:44+02:00</time>
      </trkpt>
      <trkpt lat="44.74311" lon="5.39045">
        <ele>427</ele>
        <time>2018-09-24T12:35:00+02:00</time>
      </trkpt>
      <trkpt lat="44.74327" lon="5.39032">
        <ele>425</ele>
        <time>2018-09-24T12:35:16+02:00</time>
      </trkpt>
      <trkpt lat="44.74354" lon="5.38995">
        <ele>425</ele>
        <time>2018-09-24T12:35:47+02:00</time>
      </trkpt>
      <trkpt lat="44.74363" lon="5.38972">
        <ele>425</ele>
        <time>2018-09-24T12:36:01+02:00</time>
      </trkpt>
      <trkpt lat="44.74386" lon="5.38931">
        <ele>424</ele>
        <time>2018-09-24T12:36:31+02:00</time>
      </trkpt>
      <trkpt lat="44.74398" lon="5.38912">
        <ele>425</ele>
        <time>2018-09-24T12:36:45+02:00</time>
      </trkpt>
      <trkpt lat="44.74425" lon="5.38875">
        <ele>423</ele>
        <time>2018-09-24T12:37:16+02:00</time>
      </trkpt>
      <trkpt lat="44.74454" lon="5.38843">
        <ele>425</ele>
        <time>2018-09-24T12:37:46+02:00</time>
      </trkpt>
      <trkpt lat="44.74467" lon="5.38823">
        <ele>425</ele>
        <time>2018-09-24T12:38:00+02:00</time>
      </trkpt>
      <trkpt lat="44.7449" lon="5.38782">
        <ele>423</ele>
        <time>2018-09-24T12:38:30+02:00</time>
      </trkpt>
      <trkpt lat="44.745" lon="5.38761">
        <ele>422</ele>
        <time>2018-09-24T12:38:46+02:00</time>
      </trkpt>
      <trkpt lat="44.74523" lon="5.38722">
        <ele>418</ele>
        <time>2018-09-24T12:39:17+02:00</time>
      </trkpt>
      <trkpt lat="44.74555" lon="5.38695">
        <ele>414</ele>
        <time>2018-09-24T12:39:45+02:00</time>
      </trkpt>
      <trkpt lat="44.74569" lon="5.38677">
        <ele>413</ele>
        <time>2018-09-24T12:40:00+02:00</time>
      </trkpt>
      <trkpt lat="44.74595" lon="5.38639">
        <ele>412</ele>
        <time>2018-09-24T12:40:30+02:00</time>
      </trkpt>
      <trkpt lat="44.7461" lon="5.38592">
        <ele>411</ele>
        <time>2018-09-24T12:41:00+02:00</time>
      </trkpt>
      <trkpt lat="44.74614" lon="5.38567">
        <ele>410</ele>
        <time>2018-09-24T12:41:13+02:00</time>
      </trkpt>
      <trkpt lat="44.74616" lon="5.38541">
        <ele>411</ele>
        <time>2018-09-24T12:41:30+02:00</time>
      </trkpt>
      <trkpt lat="44.74633" lon="5.38494">
        <ele>412</ele>
        <time>2018-09-24T12:42:07+02:00</time>
      </trkpt>
      <trkpt lat="44.74654" lon="5.38452">
        <ele>410</ele>
        <time>2018-09-24T12:42:42+02:00</time>
      </trkpt>
      <trkpt lat="44.74662" lon="5.38428">
        <ele>409</ele>
        <time>2018-09-24T12:43:01+02:00</time>
      </trkpt>
      <trkpt lat="44.74697" lon="5.38415">
        <ele>408</ele>
        <time>2018-09-24T12:43:44+02:00</time>
      </trkpt>
      <trkpt lat="44.74716" lon="5.38412">
        <ele>408</ele>
        <time>2018-09-24T12:43:59+02:00</time>
      </trkpt>
      <trkpt lat="44.74752" lon="5.38405">
        <ele>411</ele>
        <time>2018-09-24T12:44:32+02:00</time>
      </trkpt>
      <trkpt lat="44.74772" lon="5.38363">
        <ele>413</ele>
        <time>2018-09-24T12:45:34+02:00</time>
      </trkpt>
      <trkpt lat="44.74785" lon="5.38345">
        <ele>412</ele>
        <time>2018-09-24T12:45:48+02:00</time>
      </trkpt>
      <trkpt lat="44.74801" lon="5.3833">
        <ele>411</ele>
        <time>2018-09-24T12:46:05+02:00</time>
      </trkpt>
      <trkpt lat="44.74827" lon="5.38292">
        <ele>409</ele>
        <time>2018-09-24T12:46:37+02:00</time>
      </trkpt>
      <trkpt lat="44.74838" lon="5.38271">
        <ele>409</ele>
        <time>2018-09-24T12:46:53+02:00</time>
      </trkpt>
      <trkpt lat="44.74839" lon="5.38219">
        <ele>410</ele>
        <time>2018-09-24T12:47:24+02:00</time>
      </trkpt>
      <trkpt lat="44.74846" lon="5.38166">
        <ele>410</ele>
        <time>2018-09-24T12:47:54+02:00</time>
      </trkpt>
      <trkpt lat="44.7485" lon="5.38141">
        <ele>410</ele>
        <time>2018-09-24T12:48:10+02:00</time>
      </trkpt>
      <trkpt lat="44.74852" lon="5.38115">
        <ele>409</ele>
        <time>2018-09-24T12:48:25+02:00</time>
      </trkpt>
      <trkpt lat="44.74846" lon="5.38063">
        <ele>408</ele>
        <time>2018-09-24T12:48:56+02:00</time>
      </trkpt>
      <trkpt lat="44.74853" lon="5.38039">
        <ele>406</ele>
        <time>2018-09-24T12:49:12+02:00</time>
      </trkpt>
      <trkpt lat="44.74863" lon="5.38016">
        <ele>407</ele>
        <time>2018-09-24T12:49:29+02:00</time>
      </trkpt>
      <trkpt lat="44.74873" lon="5.37995">
        <ele>407</ele>
        <time>2018-09-24T12:49:51+02:00</time>
      </trkpt>
      <trkpt lat="44.74884" lon="5.37975">
        <ele>406</ele>
        <time>2018-09-24T12:50:09+02:00</time>
      </trkpt>
      <trkpt lat="44.74894" lon="5.37953">
        <ele>407</ele>
        <time>2018-09-24T12:50:29+02:00</time>
      </trkpt>
      <trkpt lat="44.7492" lon="5.37919">
        <ele>406</ele>
        <time>2018-09-24T12:51:02+02:00</time>
      </trkpt>
      <trkpt lat="44.74942" lon="5.37877">
        <ele>408</ele>
        <time>2018-09-24T12:51:32+02:00</time>
      </trkpt>
      <trkpt lat="44.74954" lon="5.37858">
        <ele>407</ele>
        <time>2018-09-24T12:51:46+02:00</time>
      </trkpt>
      <trkpt lat="44.74976" lon="5.37817">
        <ele>408</ele>
        <time>2018-09-24T12:52:17+02:00</time>
      </trkpt>
      <trkpt lat="44.7499" lon="5.37799">
        <ele>408</ele>
        <time>2018-09-24T12:52:35+02:00</time>
      </trkpt>
      <trkpt lat="44.75014" lon="5.3776">
        <ele>408</ele>
        <time>2018-09-24T12:53:01+02:00</time>
      </trkpt>
      <trkpt lat="44.75025" lon="5.37739">
        <ele>409</ele>
        <time>2018-09-24T12:53:19+02:00</time>
      </trkpt>
      <trkpt lat="44.75036" lon="5.37716">
        <ele>409</ele>
        <time>2018-09-24T12:53:35+02:00</time>
      </trkpt>
      <trkpt lat="44.75046" lon="5.37694">
        <ele>410</ele>
        <time>2018-09-24T12:53:49+02:00</time>
      </trkpt>
      <trkpt lat="44.75073" lon="5.37659">
        <ele>408</ele>
        <time>2018-09-24T12:54:31+02:00</time>
      </trkpt>
      <trkpt lat="44.75102" lon="5.37628">
        <ele>408</ele>
        <time>2018-09-24T12:55:00+02:00</time>
      </trkpt>
      <trkpt lat="44.75116" lon="5.37611">
        <ele>414</ele>
        <time>2018-09-24T12:55:19+02:00</time>
      </trkpt>
      <trkpt lat="44.75134" lon="5.37562">
        <ele>412</ele>
        <time>2018-09-24T12:56:57+02:00</time>
      </trkpt>
      <trkpt lat="44.75176" lon="5.37514">
        <ele>413</ele>
        <time>2018-09-24T12:57:53+02:00</time>
      </trkpt>
      <trkpt lat="44.75218" lon="5.37466">
        <ele>409</ele>
        <time>2018-09-24T12:58:52+02:00</time>
      </trkpt>
      <trkpt lat="44.75261" lon="5.37421">
        <ele>410</ele>
        <time>2018-09-24T13:02:10+02:00</time>
      </trkpt>
      <trkpt lat="44.75289" lon="5.37386">
        <ele>412</ele>
        <time>2018-09-24T13:02:58+02:00</time>
      </trkpt>
      <trkpt lat="44.75302" lon="5.37368">
        <ele>413</ele>
        <time>2018-09-24T13:03:15+02:00</time>
      </trkpt>
      <trkpt lat="44.75315" lon="5.3735">
        <ele>414</ele>
        <time>2018-09-24T13:03:30+02:00</time>
      </trkpt>
      <trkpt lat="44.75343" lon="5.37293">
        <ele>420</ele>
        <time>2018-09-24T13:03:52+02:00</time>
      </trkpt>
      <trkpt lat="44.75378" lon="5.37181">
        <ele>422</ele>
      </trkpt>
      <trkpt lat="44.75532" lon="5.36911">
        <ele>417</ele>
      </trkpt>
      <trkpt lat="44.7577" lon="5.36499">
        <ele>398</ele>
      </trkpt>
      <trkpt lat="44.75828" lon="5.36353">
        <ele>394</ele>
        <time>2018-09-24T13:04:29+02:00</time>
      </trkpt>
    </trkseg>
  </trk>
</gpx>